sensor_id;sensor_type;location;lat;lon;timestamp;pressure;altitude;pressure_sealevel;temperature;humidity
43125;BME280;49182;50.788;7.318;2022-12-29T00:00:07;99818.00;;;11.46;76.61
43125;BME280;49182;50.788;7.318;2022-12-29T00:02:40;99816.66;;;11.50;76.83
43125;BME280;49182;50.788;7.318;2022-12-29T00:05:08;99808.09;;;11.56;76.72
43125;BME280;49182;50.788;7.318;2022-12-29T00:07:36;99791.75;;;11.53;76.75
43125;BME280;49182;50.788;7.318;2022-12-29T00:10:04;99794.38;;;11.53;76.88
43125;BME280;49182;50.788;7.318;2022-12-29T00:12:30;99800.81;;;11.50;76.83
43125;BME280;49182;50.788;7.318;2022-12-29T00:14:57;99789.94;;;11.53;76.80
43125;BME280;49182;50.788;7.318;2022-12-29T00:17:23;99779.16;;;11.55;76.77
43125;BME280;49182;50.788;7.318;2022-12-29T00:19:50;99777.06;;;11.58;77.21
43125;BME280;49182;50.788;7.318;2022-12-29T00:22:17;99772.75;;;11.57;76.74
43125;BME280;49182;50.788;7.318;2022-12-29T00:24:45;99768.78;;;11.53;76.97
43125;BME280;49182;50.788;7.318;2022-12-29T00:27:12;99776.38;;;11.56;77.37
43125;BME280;49182;50.788;7.318;2022-12-29T00:29:39;99779.53;;;11.60;77.10
43125;BME280;49182;50.788;7.318;2022-12-29T00:32:06;99771.13;;;11.64;77.41
43125;BME280;49182;50.788;7.318;2022-12-29T00:34:33;99765.00;;;11.64;77.05
43125;BME280;49182;50.788;7.318;2022-12-29T00:37:01;99764.47;;;11.60;77.22
43125;BME280;49182;50.788;7.318;2022-12-29T00:39:27;99765.66;;;11.58;77.44
43125;BME280;49182;50.788;7.318;2022-12-29T00:41:55;99752.28;;;11.59;77.44
43125;BME280;49182;50.788;7.318;2022-12-29T00:44:22;99753.28;;;11.66;78.15
43125;BME280;49182;50.788;7.318;2022-12-29T00:46:48;99752.56;;;11.56;77.53
43125;BME280;49182;50.788;7.318;2022-12-29T00:49:15;99749.63;;;11.59;77.95
43125;BME280;49182;50.788;7.318;2022-12-29T00:51:43;99756.72;;;11.67;77.32
43125;BME280;49182;50.788;7.318;2022-12-29T00:54:10;99743.00;;;11.63;77.80
43125;BME280;49182;50.788;7.318;2022-12-29T00:56:37;99678.34;;;11.25;77.68
43125;BME280;49182;50.788;7.318;2022-12-29T00:59:06;99738.06;;;11.68;77.46
43125;BME280;49182;50.788;7.318;2022-12-29T01:01:34;99713.72;;;11.49;77.30
43125;BME280;49182;50.788;7.318;2022-12-29T01:04:02;99744.03;;;11.70;76.62
43125;BME280;49182;50.788;7.318;2022-12-29T01:06:30;99760.09;;;11.77;77.02
43125;BME280;49182;50.788;7.318;2022-12-29T01:08:57;99765.88;;;11.81;77.15
43125;BME280;49182;50.788;7.318;2022-12-29T01:11:23;99757.94;;;11.81;76.77
43125;BME280;49182;50.788;7.318;2022-12-29T01:13:50;99744.53;;;11.74;77.15
43125;BME280;49182;50.788;7.318;2022-12-29T01:16:18;99630.41;;;11.04;76.98
43125;BME280;49182;50.788;7.318;2022-12-29T01:18:44;99757.47;;;11.77;77.37
43125;BME280;49182;50.788;7.318;2022-12-29T01:21:11;99738.13;;;11.77;76.49
43125;BME280;49182;50.788;7.318;2022-12-29T01:23:38;99744.88;;;11.79;76.48
43125;BME280;49182;50.788;7.318;2022-12-29T01:26:08;99752.50;;;11.82;75.36
43125;BME280;49182;50.788;7.318;2022-12-29T01:28:35;99736.28;;;11.85;75.52
43125;BME280;49182;50.788;7.318;2022-12-29T01:31:02;99746.06;;;11.93;74.75
43125;BME280;49182;50.788;7.318;2022-12-29T01:33:31;99746.38;;;11.98;74.92
43125;BME280;49182;50.788;7.318;2022-12-29T01:35:59;99756.97;;;11.90;74.61
43125;BME280;49182;50.788;7.318;2022-12-29T01:38:26;99749.38;;;11.95;74.66
43125;BME280;49182;50.788;7.318;2022-12-29T01:40:53;99751.88;;;11.96;73.46
43125;BME280;49182;50.788;7.318;2022-12-29T01:43:19;99751.03;;;11.96;73.74
43125;BME280;49182;50.788;7.318;2022-12-29T01:45:50;99743.94;;;11.96;73.50
43125;BME280;49182;50.788;7.318;2022-12-29T01:48:18;99742.41;;;11.94;73.93
43125;BME280;49182;50.788;7.318;2022-12-29T01:50:51;99745.88;;;11.86;73.38
43125;BME280;49182;50.788;7.318;2022-12-29T01:53:22;99736.13;;;11.87;73.12
43125;BME280;49182;50.788;7.318;2022-12-29T01:55:54;99744.25;;;11.93;72.86
43125;BME280;49182;50.788;7.318;2022-12-29T01:58:23;99748.38;;;11.88;72.58
43125;BME280;49182;50.788;7.318;2022-12-29T02:00:51;99749.34;;;11.87;72.75
43125;BME280;49182;50.788;7.318;2022-12-29T02:03:19;99751.88;;;11.96;72.49
43125;BME280;49182;50.788;7.318;2022-12-29T02:05:52;99742.09;;;11.89;71.73
43125;BME280;49182;50.788;7.318;2022-12-29T02:08:22;99745.91;;;11.94;72.36
43125;BME280;49182;50.788;7.318;2022-12-29T02:10:50;99660.53;;;11.35;71.95
43125;BME280;49182;50.788;7.318;2022-12-29T02:13:23;99729.53;;;11.91;71.73
43125;BME280;49182;50.788;7.318;2022-12-29T02:15:56;99722.91;;;11.87;71.70
43125;BME280;49182;50.788;7.318;2022-12-29T02:18:35;99708.03;;;11.86;71.69
43125;BME280;49182;50.788;7.318;2022-12-29T02:24:29;99687.88;;;11.85;71.49
43125;BME280;49182;50.788;7.318;2022-12-29T02:27:31;99696.78;;;11.92;70.42
43125;BME280;49182;50.788;7.318;2022-12-29T02:30:06;99685.72;;;11.96;70.82
43125;BME280;49182;50.788;7.318;2022-12-29T02:32:42;99674.78;;;11.99;71.36
43125;BME280;49182;50.788;7.318;2022-12-29T02:35:18;99680.91;;;12.00;70.94
43125;BME280;49182;50.788;7.318;2022-12-29T02:37:55;99666.88;;;11.83;70.96
43125;BME280;49182;50.788;7.318;2022-12-29T02:40:31;99682.72;;;11.91;71.38
43125;BME280;49182;50.788;7.318;2022-12-29T02:43:05;99672.16;;;11.91;71.41
43125;BME280;49182;50.788;7.318;2022-12-29T02:45:47;99686.22;;;12.00;71.60
43125;BME280;49182;50.788;7.318;2022-12-29T02:48:18;99682.91;;;11.98;71.56
43125;BME280;49182;50.788;7.318;2022-12-29T02:50:52;99671.47;;;11.97;72.09
43125;BME280;49182;50.788;7.318;2022-12-29T02:53:23;99680.25;;;12.06;72.40
43125;BME280;49182;50.788;7.318;2022-12-29T02:55:51;99653.16;;;11.96;72.92
43125;BME280;49182;50.788;7.318;2022-12-29T02:58:20;99667.19;;;12.04;73.04
43125;BME280;49182;50.788;7.318;2022-12-29T03:00:57;99665.19;;;11.98;73.25
43125;BME280;49182;50.788;7.318;2022-12-29T03:03:43;99679.09;;;12.00;73.45
43125;BME280;49182;50.788;7.318;2022-12-29T03:06:25;99664.22;;;11.99;73.52
43125;BME280;49182;50.788;7.318;2022-12-29T03:09:02;99654.47;;;11.92;73.57
43125;BME280;49182;50.788;7.318;2022-12-29T03:11:33;99667.03;;;12.06;73.97
43125;BME280;49182;50.788;7.318;2022-12-29T03:14:07;99673.50;;;11.95;74.03
43125;BME280;49182;50.788;7.318;2022-12-29T03:16:44;99649.84;;;12.02;74.27
43125;BME280;49182;50.788;7.318;2022-12-29T03:19:17;99640.91;;;11.95;74.38
43125;BME280;49182;50.788;7.318;2022-12-29T03:21:50;99657.78;;;11.94;74.90
43125;BME280;49182;50.788;7.318;2022-12-29T03:24:22;99644.06;;;11.90;75.30
43125;BME280;49182;50.788;7.318;2022-12-29T03:26:56;99631.16;;;11.95;75.00
43125;BME280;49182;50.788;7.318;2022-12-29T03:29:28;99634.28;;;11.99;74.94
43125;BME280;49182;50.788;7.318;2022-12-29T03:31:56;99641.91;;;11.94;75.47
43125;BME280;49182;50.788;7.318;2022-12-29T03:34:26;99647.34;;;11.92;75.54
43125;BME280;49182;50.788;7.318;2022-12-29T03:36:59;99647.88;;;11.96;75.11
43125;BME280;49182;50.788;7.318;2022-12-29T03:39:28;99649.50;;;11.89;75.12
43125;BME280;49182;50.788;7.318;2022-12-29T03:42:00;99650.31;;;11.97;74.85
43125;BME280;49182;50.788;7.318;2022-12-29T03:44:32;99636.44;;;11.95;75.36
43125;BME280;49182;50.788;7.318;2022-12-29T03:47:00;99645.19;;;12.04;75.09
43125;BME280;49182;50.788;7.318;2022-12-29T03:49:28;99654.97;;;12.03;75.46
43125;BME280;49182;50.788;7.318;2022-12-29T03:51:55;99644.22;;;11.97;75.60
43125;BME280;49182;50.788;7.318;2022-12-29T03:54:23;99641.22;;;12.00;75.64
43125;BME280;49182;50.788;7.318;2022-12-29T03:56:52;99655.28;;;12.00;75.31
43125;BME280;49182;50.788;7.318;2022-12-29T03:59:29;99650.47;;;12.04;74.96
43125;BME280;49182;50.788;7.318;2022-12-29T04:01:55;99612.66;;;11.87;75.01
43125;BME280;49182;50.788;7.318;2022-12-29T04:04:22;99634.94;;;12.01;74.64
43125;BME280;49182;50.788;7.318;2022-12-29T04:06:50;99643.06;;;12.07;74.58
43125;BME280;49182;50.788;7.318;2022-12-29T04:09:17;99636.94;;;12.07;74.45
43125;BME280;49182;50.788;7.318;2022-12-29T04:11:47;99636.94;;;12.07;74.68
43125;BME280;49182;50.788;7.318;2022-12-29T04:14:14;99643.22;;;12.14;73.81
43125;BME280;49182;50.788;7.318;2022-12-29T04:16:40;99642.88;;;12.09;74.39
43125;BME280;49182;50.788;7.318;2022-12-29T04:19:08;99639.72;;;12.13;73.65
43125;BME280;49182;50.788;7.318;2022-12-29T04:21:36;99638.56;;;12.16;73.87
43125;BME280;49182;50.788;7.318;2022-12-29T04:24:06;99646.84;;;12.13;74.14
43125;BME280;49182;50.788;7.318;2022-12-29T04:26:37;99611.81;;;11.95;73.80
43125;BME280;49182;50.788;7.318;2022-12-29T04:29:26;99629.16;;;12.13;73.97
43125;BME280;49182;50.788;7.318;2022-12-29T04:32:08;99638.91;;;12.05;74.39
43125;BME280;49182;50.788;7.318;2022-12-29T04:34:40;99619.91;;;12.09;74.13
43125;BME280;49182;50.788;7.318;2022-12-29T04:37:07;99627.50;;;12.04;74.83
43125;BME280;49182;50.788;7.318;2022-12-29T04:39:35;99626.66;;;12.04;74.43
43125;BME280;49182;50.788;7.318;2022-12-29T04:42:03;99601.38;;;12.01;73.92
43125;BME280;49182;50.788;7.318;2022-12-29T04:44:30;99605.03;;;12.08;74.05
43125;BME280;49182;50.788;7.318;2022-12-29T04:47:12;99615.09;;;12.05;73.89
43125;BME280;49182;50.788;7.318;2022-12-29T04:50:00;99606.00;;;12.07;73.12
43125;BME280;49182;50.788;7.318;2022-12-29T04:52:33;99591.78;;;12.00;73.48
43125;BME280;49182;50.788;7.318;2022-12-29T04:55:03;99617.25;;;12.01;73.50
43125;BME280;49182;50.788;7.318;2022-12-29T04:57:31;99608.16;;;12.04;73.50
43125;BME280;49182;50.788;7.318;2022-12-29T04:59:59;99542.88;;;11.88;71.62
43125;BME280;49182;50.788;7.318;2022-12-29T05:02:26;99595.94;;;12.03;72.48
43125;BME280;49182;50.788;7.318;2022-12-29T05:04:55;99648.50;;;12.06;72.07
43125;BME280;49182;50.788;7.318;2022-12-29T05:07:22;99623.53;;;12.08;71.59
43125;BME280;49182;50.788;7.318;2022-12-29T05:09:50;99566.69;;;11.96;71.74
43125;BME280;49182;50.788;7.318;2022-12-29T05:12:18;99610.78;;;12.04;72.49
43125;BME280;49182;50.788;7.318;2022-12-29T05:14:56;99606.00;;;11.99;72.01
43125;BME280;49182;50.788;7.318;2022-12-29T05:17:23;99577.59;;;11.69;72.32
43125;BME280;49182;50.788;7.318;2022-12-29T05:19:50;99611.16;;;11.93;72.00
43125;BME280;49182;50.788;7.318;2022-12-29T05:22:17;99613.28;;;11.97;72.97
43125;BME280;49182;50.788;7.318;2022-12-29T05:24:44;99598.63;;;11.79;73.19
43125;BME280;49182;50.788;7.318;2022-12-29T05:27:11;99608.50;;;12.01;73.63
43125;BME280;49182;50.788;7.318;2022-12-29T05:29:56;99631.66;;;11.91;74.86
43125;BME280;49182;50.788;7.318;2022-12-29T05:32:24;99622.25;;;11.88;75.35
43125;BME280;49182;50.788;7.318;2022-12-29T05:34:52;99597.41;;;11.73;76.00
43125;BME280;49182;50.788;7.318;2022-12-29T05:37:19;99629.19;;;11.81;76.21
43125;BME280;49182;50.788;7.318;2022-12-29T05:39:46;99626.50;;;11.73;76.74
43125;BME280;49182;50.788;7.318;2022-12-29T05:42:13;99642.75;;;11.78;76.80
43125;BME280;49182;50.788;7.318;2022-12-29T05:45:14;99628.69;;;11.78;77.82
43125;BME280;49182;50.788;7.318;2022-12-29T05:47:52;99653.28;;;11.54;78.31
43125;BME280;49182;50.788;7.318;2022-12-29T05:50:47;99650.50;;;11.71;78.21
43125;BME280;49182;50.788;7.318;2022-12-29T05:53:15;99647.50;;;11.66;78.34
43125;BME280;49182;50.788;7.318;2022-12-29T05:55:43;99645.66;;;11.67;78.57
43125;BME280;49182;50.788;7.318;2022-12-29T05:58:15;99632.78;;;11.56;78.63
43125;BME280;49182;50.788;7.318;2022-12-29T06:00:44;99643.34;;;11.56;79.11
43125;BME280;49182;50.788;7.318;2022-12-29T06:03:12;99672.09;;;11.67;79.92
43125;BME280;49182;50.788;7.318;2022-12-29T06:05:39;99669.16;;;11.70;79.85
43125;BME280;49182;50.788;7.318;2022-12-29T06:08:05;99684.53;;;11.66;80.41
43125;BME280;49182;50.788;7.318;2022-12-29T06:10:33;99678.72;;;11.63;80.26
43125;BME280;49182;50.788;7.318;2022-12-29T06:13:03;99668.16;;;11.71;80.57
43125;BME280;49182;50.788;7.318;2022-12-29T06:15:31;99680.22;;;11.65;81.05
43125;BME280;49182;50.788;7.318;2022-12-29T06:17:59;99680.03;;;11.67;81.95
43125;BME280;49182;50.788;7.318;2022-12-29T06:20:26;99676.25;;;11.69;82.08
43125;BME280;49182;50.788;7.318;2022-12-29T06:22:53;99680.88;;;11.67;81.99
43125;BME280;49182;50.788;7.318;2022-12-29T06:25:20;99675.41;;;11.61;82.47
43125;BME280;49182;50.788;7.318;2022-12-29T06:27:49;99681.53;;;11.53;83.07
43125;BME280;49182;50.788;7.318;2022-12-29T06:30:16;99680.88;;;11.51;83.25
43125;BME280;49182;50.788;7.318;2022-12-29T06:32:44;99677.56;;;11.57;83.45
43125;BME280;49182;50.788;7.318;2022-12-29T06:35:15;99676.75;;;11.57;83.60
43125;BME280;49182;50.788;7.318;2022-12-29T06:37:48;99702.84;;;11.52;84.85
43125;BME280;49182;50.788;7.318;2022-12-29T06:40:15;99676.03;;;11.30;85.81
43125;BME280;49182;50.788;7.318;2022-12-29T06:43:05;99693.53;;;11.31;87.95
43125;BME280;49182;50.788;7.318;2022-12-29T06:45:52;99689.94;;;11.41;87.31
43125;BME280;49182;50.788;7.318;2022-12-29T06:48:19;99692.41;;;11.34;87.98
43125;BME280;49182;50.788;7.318;2022-12-29T06:50:47;99692.06;;;11.37;88.34
43125;BME280;49182;50.788;7.318;2022-12-29T06:53:13;99656.69;;;11.22;88.80
43125;BME280;49182;50.788;7.318;2022-12-29T06:55:41;99676.34;;;11.19;90.87
43125;BME280;49182;50.788;7.318;2022-12-29T06:58:08;99679.28;;;11.08;91.97
43125;BME280;49182;50.788;7.318;2022-12-29T07:00:34;99700.91;;;11.04;92.13
43125;BME280;49182;50.788;7.318;2022-12-29T07:03:01;99694.97;;;11.10;91.15
43125;BME280;49182;50.788;7.318;2022-12-29T07:05:28;99704.56;;;11.11;90.93
43125;BME280;49182;50.788;7.318;2022-12-29T07:07:56;99721.66;;;10.99;91.20
43125;BME280;49182;50.788;7.318;2022-12-29T07:10:23;99729.91;;;10.95;90.86
43125;BME280;49182;50.788;7.318;2022-12-29T07:12:50;99708.94;;;10.94;90.58
43125;BME280;49182;50.788;7.318;2022-12-29T07:15:17;99685.06;;;10.70;92.24
43125;BME280;49182;50.788;7.318;2022-12-29T07:17:43;99683.16;;;10.88;91.28
43125;BME280;49182;50.788;7.318;2022-12-29T07:20:10;99654.78;;;10.56;91.30
43125;BME280;49182;50.788;7.318;2022-12-29T07:22:37;99688.72;;;10.77;92.33
43125;BME280;49182;50.788;7.318;2022-12-29T07:25:05;99695.97;;;10.75;92.84
43125;BME280;49182;50.788;7.318;2022-12-29T07:27:32;99681.59;;;10.69;93.11
43125;BME280;49182;50.788;7.318;2022-12-29T07:29:59;99699.25;;;10.69;93.85
43125;BME280;49182;50.788;7.318;2022-12-29T07:32:25;99708.00;;;10.69;93.71
43125;BME280;49182;50.788;7.318;2022-12-29T07:34:52;99725.00;;;10.67;94.20
43125;BME280;49182;50.788;7.318;2022-12-29T07:37:18;99727.25;;;10.62;94.45
43125;BME280;49182;50.788;7.318;2022-12-29T07:39:45;99733.16;;;10.55;95.40
43125;BME280;49182;50.788;7.318;2022-12-29T07:42:13;99729.59;;;10.65;94.24
43125;BME280;49182;50.788;7.318;2022-12-29T07:44:42;99728.28;;;10.69;93.56
43125;BME280;49182;50.788;7.318;2022-12-29T07:47:15;99742.00;;;10.72;93.38
43125;BME280;49182;50.788;7.318;2022-12-29T07:49:42;99741.81;;;10.66;93.06
43125;BME280;49182;50.788;7.318;2022-12-29T07:52:08;99750.03;;;10.63;93.74
43125;BME280;49182;50.788;7.318;2022-12-29T07:54:35;99754.66;;;10.61;93.70
43125;BME280;49182;50.788;7.318;2022-12-29T07:57:01;99745.38;;;10.57;93.17
43125;BME280;49182;50.788;7.318;2022-12-29T07:59:29;99719.38;;;10.44;92.71
43125;BME280;49182;50.788;7.318;2022-12-29T08:01:56;99765.09;;;10.70;91.83
43125;BME280;49182;50.788;7.318;2022-12-29T08:04:23;99769.19;;;10.65;92.25
43125;BME280;49182;50.788;7.318;2022-12-29T08:06:50;99770.03;;;10.65;90.95
43125;BME280;49182;50.788;7.318;2022-12-29T08:09:17;99776.41;;;10.63;90.38
43125;BME280;49182;50.788;7.318;2022-12-29T08:11:49;99779.28;;;10.69;89.30
43125;BME280;49182;50.788;7.318;2022-12-29T08:14:16;99753.53;;;10.45;88.05
43125;BME280;49182;50.788;7.318;2022-12-29T08:16:44;99749.56;;;10.41;87.65
43125;BME280;49182;50.788;7.318;2022-12-29T08:19:11;99785.09;;;10.73;86.40
43125;BME280;49182;50.788;7.318;2022-12-29T08:21:38;99775.81;;;10.69;86.08
43125;BME280;49182;50.788;7.318;2022-12-29T08:24:05;99794.81;;;10.72;84.86
43125;BME280;49182;50.788;7.318;2022-12-29T08:26:32;99767.28;;;10.49;83.87
43125;BME280;49182;50.788;7.318;2022-12-29T08:28:59;99797.03;;;10.59;84.09
43125;BME280;49182;50.788;7.318;2022-12-29T08:31:25;99803.78;;;10.79;83.06
43125;BME280;49182;50.788;7.318;2022-12-29T08:33:53;99802.75;;;10.72;81.58
43125;BME280;49182;50.788;7.318;2022-12-29T08:36:20;99800.94;;;10.73;81.64
43125;BME280;49182;50.788;7.318;2022-12-29T08:38:47;99794.13;;;10.70;81.85
43125;BME280;49182;50.788;7.318;2022-12-29T08:41:13;99797.31;;;10.74;80.69
43125;BME280;49182;50.788;7.318;2022-12-29T08:43:40;99798.72;;;10.68;80.58
43125;BME280;49182;50.788;7.318;2022-12-29T08:46:06;99803.88;;;10.70;80.00
43125;BME280;49182;50.788;7.318;2022-12-29T08:48:33;99810.34;;;10.75;79.63
43125;BME280;49182;50.788;7.318;2022-12-29T08:51:02;99784.34;;;10.63;79.63
43125;BME280;49182;50.788;7.318;2022-12-29T08:53:28;99812.22;;;10.83;79.82
43125;BME280;49182;50.788;7.318;2022-12-29T08:55:57;99814.16;;;10.81;79.02
43125;BME280;49182;50.788;7.318;2022-12-29T08:58:37;99813.72;;;10.85;79.18
43125;BME280;49182;50.788;7.318;2022-12-29T09:01:04;99814.34;;;10.79;78.45
43125;BME280;49182;50.788;7.318;2022-12-29T09:03:32;99819.66;;;10.87;78.20
43125;BME280;49182;50.788;7.318;2022-12-29T09:06:19;99820.63;;;10.86;77.07
43125;BME280;49182;50.788;7.318;2022-12-29T09:08:46;99829.72;;;10.84;76.63
43125;BME280;49182;50.788;7.318;2022-12-29T09:11:15;99836.13;;;10.81;76.60
43125;BME280;49182;50.788;7.318;2022-12-29T09:13:42;99842.09;;;10.83;76.12
43125;BME280;49182;50.788;7.318;2022-12-29T09:16:09;99848.06;;;10.85;76.69
43125;BME280;49182;50.788;7.318;2022-12-29T09:18:36;99835.81;;;10.84;76.62
43125;BME280;49182;50.788;7.318;2022-12-29T09:21:04;99857.47;;;10.88;75.97
43125;BME280;49182;50.788;7.318;2022-12-29T09:23:33;99859.34;;;10.95;76.04
43125;BME280;49182;50.788;7.318;2022-12-29T09:26:00;99864.47;;;10.97;75.86
43125;BME280;49182;50.788;7.318;2022-12-29T09:28:27;99863.28;;;10.91;75.30
43125;BME280;49182;50.788;7.318;2022-12-29T09:30:54;99859.34;;;10.95;75.26
43125;BME280;49182;50.788;7.318;2022-12-29T09:33:21;99841.09;;;10.84;74.45
43125;BME280;49182;50.788;7.318;2022-12-29T09:35:50;99839.75;;;10.80;74.54
43125;BME280;49182;50.788;7.318;2022-12-29T09:38:17;99848.50;;;10.81;73.35
43125;BME280;49182;50.788;7.318;2022-12-29T09:40:50;99859.25;;;10.87;73.21
43125;BME280;49182;50.788;7.318;2022-12-29T09:43:36;99866.91;;;10.90;73.58
43125;BME280;49182;50.788;7.318;2022-12-29T09:46:19;99873.22;;;10.98;72.83
43125;BME280;49182;50.788;7.318;2022-12-29T09:48:54;99875.47;;;10.92;72.78
43125;BME280;49182;50.788;7.318;2022-12-29T09:51:24;99889.06;;;10.98;72.73
43125;BME280;49182;50.788;7.318;2022-12-29T09:53:55;99894.84;;;11.01;72.97
43125;BME280;49182;50.788;7.318;2022-12-29T09:56:25;99888.75;;;11.01;73.21
43125;BME280;49182;50.788;7.318;2022-12-29T09:58:56;99887.19;;;10.90;72.76
43125;BME280;49182;50.788;7.318;2022-12-29T10:01:28;99883.41;;;10.92;71.45
43125;BME280;49182;50.788;7.318;2022-12-29T10:03:58;99898.34;;;11.02;70.79
43125;BME280;49182;50.788;7.318;2022-12-29T10:06:30;99901.47;;;11.05;70.52
43125;BME280;49182;50.788;7.318;2022-12-29T10:09:04;99899.72;;;11.14;70.00
43125;BME280;49182;50.788;7.318;2022-12-29T10:11:49;99886.63;;;11.04;66.54
43125;BME280;49182;50.788;7.318;2022-12-29T10:14:29;99893.94;;;11.10;66.42
43125;BME280;49182;50.788;7.318;2022-12-29T10:17:04;99888.03;;;11.16;66.22
43125;BME280;49182;50.788;7.318;2022-12-29T10:22:34;99893.81;;;11.20;65.61
43125;BME280;49182;50.788;7.318;2022-12-29T10:25:12;99905.72;;;11.24;64.92
43125;BME280;49182;50.788;7.318;2022-12-29T10:27:42;99897.31;;;11.20;65.38
43125;BME280;49182;50.788;7.318;2022-12-29T10:30:12;99893.81;;;11.20;66.41
43125;BME280;49182;50.788;7.318;2022-12-29T10:32:43;99895.38;;;11.30;66.21
43125;BME280;49182;50.788;7.318;2022-12-29T10:35:14;99885.78;;;11.29;65.92
43125;BME280;49182;50.788;7.318;2022-12-29T10:37:49;99898.19;;;11.29;66.57
43125;BME280;49182;50.788;7.318;2022-12-29T10:40:23;99885.59;;;11.23;65.75
43125;BME280;49182;50.788;7.318;2022-12-29T10:42:55;99895.22;;;11.32;66.07
43125;BME280;49182;50.788;7.318;2022-12-29T10:45:24;99884.50;;;11.33;66.04
43125;BME280;49182;50.788;7.318;2022-12-29T10:47:55;99904.28;;;11.29;66.18
43125;BME280;49182;50.788;7.318;2022-12-29T10:50:25;99893.91;;;11.36;65.65
43125;BME280;49182;50.788;7.318;2022-12-29T10:52:53;99892.56;;;11.32;66.43
43125;BME280;49182;50.788;7.318;2022-12-29T10:55:22;99889.38;;;11.20;66.55
43125;BME280;49182;50.788;7.318;2022-12-29T10:58:01;99908.22;;;11.25;66.91
43125;BME280;49182;50.788;7.318;2022-12-29T11:00:28;99892.72;;;11.30;66.91
43125;BME280;49182;50.788;7.318;2022-12-29T11:03:25;99891.53;;;11.25;66.88
43125;BME280;49182;50.788;7.318;2022-12-29T11:06:03;99902.78;;;11.27;66.46
43125;BME280;49182;50.788;7.318;2022-12-29T11:08:36;99885.06;;;11.19;66.36
43125;BME280;49182;50.788;7.318;2022-12-29T11:11:05;99892.94;;;11.37;67.16
43125;BME280;49182;50.788;7.318;2022-12-29T11:13:35;99897.72;;;11.33;66.78
43125;BME280;49182;50.788;7.318;2022-12-29T11:16:12;99895.91;;;11.34;65.70
43125;BME280;49182;50.788;7.318;2022-12-29T11:18:40;99904.47;;;11.36;65.71
43125;BME280;49182;50.788;7.318;2022-12-29T11:21:25;99897.22;;;11.38;64.83
43125;BME280;49182;50.788;7.318;2022-12-29T11:23:56;99895.13;;;11.42;62.99
43125;BME280;49182;50.788;7.318;2022-12-29T11:26:23;99899.41;;;11.43;63.69
43125;BME280;49182;50.788;7.318;2022-12-29T11:29:22;99904.88;;;11.49;62.62
43125;BME280;49182;50.788;7.318;2022-12-29T11:31:51;99910.53;;;11.54;62.35
43125;BME280;49182;50.788;7.318;2022-12-29T11:34:20;99907.09;;;11.62;62.64
43125;BME280;49182;50.788;7.318;2022-12-29T11:36:48;99877.06;;;11.37;61.40
43125;BME280;49182;50.788;7.318;2022-12-29T11:39:36;99912.53;;;11.60;61.81
43125;BME280;49182;50.788;7.318;2022-12-29T11:42:06;99903.81;;;11.60;61.65
43125;BME280;49182;50.788;7.318;2022-12-29T11:44:43;99920.50;;;11.68;60.95
43125;BME280;49182;50.788;7.318;2022-12-29T11:47:12;99910.03;;;11.77;61.99
43125;BME280;49182;50.788;7.318;2022-12-29T11:49:40;99912.97;;;11.73;61.81
43125;BME280;49182;50.788;7.318;2022-12-29T11:52:07;99916.44;;;11.74;61.50
43125;BME280;49182;50.788;7.318;2022-12-29T11:54:36;99913.25;;;11.70;61.24
43125;BME280;49182;50.788;7.318;2022-12-29T11:57:10;99929.22;;;11.79;60.61
43125;BME280;49182;50.788;7.318;2022-12-29T11:59:42;99927.91;;;11.83;60.55
43125;BME280;49182;50.788;7.318;2022-12-29T12:05:14;99930.63;;;11.73;60.17
43125;BME280;49182;50.788;7.318;2022-12-29T12:07:44;99934.50;;;11.79;60.70
43125;BME280;49182;50.788;7.318;2022-12-29T12:10:22;99930.50;;;11.74;60.89
43125;BME280;49182;50.788;7.318;2022-12-29T12:12:56;99927.84;;;11.74;61.01
43125;BME280;49182;50.788;7.318;2022-12-29T12:15:31;99939.19;;;11.67;60.84
43125;BME280;49182;50.788;7.318;2022-12-29T12:18:10;99936.63;;;11.75;60.63
43125;BME280;49182;50.788;7.318;2022-12-29T12:20:44;99928.09;;;11.63;60.76
43125;BME280;49182;50.788;7.318;2022-12-29T12:23:22;99944.16;;;11.70;60.88
43125;BME280;49182;50.788;7.318;2022-12-29T12:25:57;99946.91;;;11.60;61.05
43125;BME280;49182;50.788;7.318;2022-12-29T12:28:32;99930.53;;;11.57;61.02
43125;BME280;49182;50.788;7.318;2022-12-29T12:31:06;99940.00;;;11.67;61.04
43125;BME280;49182;50.788;7.318;2022-12-29T12:33:41;99934.22;;;11.64;60.80
43125;BME280;49182;50.788;7.318;2022-12-29T12:36:25;99957.03;;;11.65;61.46
43125;BME280;49182;50.788;7.318;2022-12-29T12:39:00;99941.03;;;11.41;60.96
43125;BME280;49182;50.788;7.318;2022-12-29T12:41:34;99958.94;;;11.55;61.32
43125;BME280;49182;50.788;7.318;2022-12-29T12:44:15;99944.25;;;11.52;60.63
43125;BME280;49182;50.788;7.318;2022-12-29T12:47:13;99958.38;;;11.43;60.76
43125;BME280;49182;50.788;7.318;2022-12-29T12:50:08;99961.03;;;11.43;59.96
43125;BME280;49182;50.788;7.318;2022-12-29T12:52:59;99964.22;;;11.55;60.46
43125;BME280;49182;50.788;7.318;2022-12-29T12:55:47;99958.72;;;11.40;59.71
43125;BME280;49182;50.788;7.318;2022-12-29T12:58:22;99956.31;;;11.29;61.07
43125;BME280;49182;50.788;7.318;2022-12-29T13:01:02;99957.88;;;11.40;60.75
43125;BME280;49182;50.788;7.318;2022-12-29T13:03:47;99961.66;;;11.37;61.51
43125;BME280;49182;50.788;7.318;2022-12-29T13:06:25;99959.00;;;11.37;60.78
43125;BME280;49182;50.788;7.318;2022-12-29T13:09:05;99940.78;;;11.26;60.42
43125;BME280;49182;50.788;7.318;2022-12-29T13:11:49;99954.88;;;11.34;59.72
43125;BME280;49182;50.788;7.318;2022-12-29T13:14:28;99951.06;;;11.37;60.62
43125;BME280;49182;50.788;7.318;2022-12-29T13:17:02;99878.78;;;10.94;59.91
43125;BME280;49182;50.788;7.318;2022-12-29T13:19:38;99963.47;;;11.36;59.81
43125;BME280;49182;50.788;7.318;2022-12-29T13:22:09;99952.69;;;11.30;59.62
43125;BME280;49182;50.788;7.318;2022-12-29T13:24:50;99953.22;;;11.33;60.44
43125;BME280;49182;50.788;7.318;2022-12-29T13:27:24;99939.16;;;11.33;59.85
43125;BME280;49182;50.788;7.318;2022-12-29T13:30:05;99925.53;;;11.20;60.15